AAL1200 KDCA-KORD
Flight info
| Callsign | AAL1200 |
|---|---|
| Flight time | 1h 38m |
| Altitude | 36000 |
| Route | WYNGS5 RAMAY Q72 HACKS J149 ROD WATSN4 |
| Aircraft | A319/M-SDE3FGHIRWY/LB1 |
Departure
| Time | 2026-04-23 03:13 |
|---|---|
| Airport | Ronald Reagan Washington National Airport (KDCA) |
Arrival
| Time | 2026-04-23 04:51 |
|---|---|
| Airport | Chicago O'Hare International Airport (KORD) |
| Time | Latitude | Longitude | Altitude | Speed | Heading |
|---|---|---|---|---|---|
| 2026-04-23 02:50 | 38.85630 | -77.04159 | 23 ft | 0 kts | 262° |
| 2026-04-23 03:04 | 38.85632 | -77.04141 | 23 ft | 2 kts | 262° |
| 2026-04-23 03:04 | 38.85634 | -77.04122 | 22 ft | 2 kts | 262° |
| 2026-04-23 03:04 | 38.85636 | -77.04102 | 22 ft | 2 kts | 270° |
| 2026-04-23 03:04 | 38.85634 | -77.04083 | 21 ft | 2 kts | 288° |
| 2026-04-23 03:05 | 38.85627 | -77.04066 | 21 ft | 2 kts | 304° |
| 2026-04-23 03:05 | 38.85617 | -77.04050 | 21 ft | 2 kts | 321° |
| 2026-04-23 03:05 | 38.85604 | -77.04041 | 21 ft | 2 kts | 338° |
| 2026-04-23 03:05 | 38.85590 | -77.04035 | 21 ft | 1 kts | 353° |
| 2026-04-23 03:06 | 38.85583 | -77.04034 | 21 ft | 1 kts | 358° |
| 2026-04-23 03:06 | 38.85582 | -77.04034 | 22 ft | 0 kts | 357° |
| 2026-04-23 03:08 | 38.85584 | -77.04034 | 21 ft | 1 kts | 357° |
| 2026-04-23 03:09 | 38.85607 | -77.04037 | 21 ft | 5 kts | 355° |
| 2026-04-23 03:09 | 38.85657 | -77.04043 | 20 ft | 9 kts | 355° |
| 2026-04-23 03:09 | 38.85738 | -77.04050 | 19 ft | 13 kts | 355° |
| 2026-04-23 03:09 | 38.85834 | -77.04060 | 19 ft | 14 kts | 355° |
| 2026-04-23 03:10 | 38.85939 | -77.04051 | 18 ft | 16 kts | 17° |
| 2026-04-23 03:10 | 38.86001 | -77.03957 | 16 ft | 4 kts | 21° |
| 2026-04-23 03:10 | 38.86002 | -77.03957 | 16 ft | 0 kts | 18° |
| 2026-04-23 03:11 | 38.86013 | -77.03952 | 16 ft | 4 kts | 18° |
| 2026-04-23 03:11 | 38.86056 | -77.03932 | 15 ft | 8 kts | 24° |
| 2026-04-23 03:11 | 38.86082 | -77.03876 | 14 ft | 9 kts | 150° |
| 2026-04-23 03:11 | 38.86048 | -77.03869 | 15 ft | 0 kts | 176° |
| 2026-04-23 03:12 | 38.85747 | -77.03838 | 18 ft | 83 kts | 175° |
| 2026-04-23 03:12 | 38.84928 | -77.03754 | 19 ft | 150 kts | 175° |
| 2026-04-23 03:12 | 38.83786 | -77.03638 | 523 ft | 164 kts | 177° |
| 2026-04-23 03:13 | 38.82671 | -77.03385 | 1332 ft | 165 kts | 168° |
| 2026-04-23 03:13 | 38.81560 | -77.03221 | 2017 ft | 163 kts | 198° |
| 2026-04-23 03:13 | 38.80440 | -77.03611 | 2572 ft | 178 kts | 195° |
| 2026-04-23 03:13 | 38.79120 | -77.03718 | 3123 ft | 199 kts | 184° |
| 2026-04-23 03:14 | 38.77686 | -77.03661 | 3676 ft | 216 kts | 182° |
| 2026-04-23 03:14 | 38.76157 | -77.04000 | 4144 ft | 232 kts | 214° |
| 2026-04-23 03:14 | 38.75020 | -77.05453 | 4706 ft | 240 kts | 248° |
| 2026-04-23 03:14 | 38.74629 | -77.07581 | 4988 ft | 254 kts | 271° |
| 2026-04-23 03:15 | 38.74563 | -77.09890 | 5048 ft | 261 kts | 271° |
| 2026-04-23 03:15 | 38.74469 | -77.12239 | 5659 ft | 271 kts | 270° |
| 2026-04-23 03:15 | 38.74345 | -77.14588 | 6850 ft | 267 kts | 270° |
| 2026-04-23 03:15 | 38.74211 | -77.16853 | 7839 ft | 268 kts | 270° |
| 2026-04-23 03:16 | 38.74067 | -77.19223 | 8741 ft | 273 kts | 270° |
| 2026-04-23 03:16 | 38.73917 | -77.21675 | 9646 ft | 277 kts | 270° |
| 2026-04-23 03:16 | 38.74475 | -77.26545 | 11051 ft | 291 kts | 297° |
| 2026-04-23 03:17 | 38.75466 | -77.28783 | 11524 ft | 306 kts | 304° |
| 2026-04-23 03:17 | 38.76622 | -77.31161 | 12186 ft | 316 kts | 304° |
| 2026-04-23 03:17 | 38.77785 | -77.33548 | 12992 ft | 320 kts | 304° |
| 2026-04-23 03:17 | 38.78947 | -77.35945 | 13790 ft | 323 kts | 304° |
| 2026-04-23 03:18 | 38.80152 | -77.38439 | 14608 ft | 326 kts | 304° |
| 2026-04-23 03:18 | 38.81328 | -77.40883 | 15381 ft | 329 kts | 304° |
| 2026-04-23 03:18 | 38.82523 | -77.43374 | 16115 ft | 333 kts | 304° |
| 2026-04-23 03:18 | 38.83723 | -77.45879 | 16847 ft | 335 kts | 304° |
| 2026-04-23 03:19 | 38.84940 | -77.48423 | 17565 ft | 338 kts | 304° |
| 2026-04-23 03:19 | 38.86183 | -77.51028 | 18267 ft | 341 kts | 304° |
| 2026-04-23 03:19 | 38.87420 | -77.53618 | 18972 ft | 343 kts | 304° |
| 2026-04-23 03:19 | 38.88694 | -77.56290 | 19647 ft | 346 kts | 304° |
| 2026-04-23 03:20 | 38.89963 | -77.58953 | 20287 ft | 349 kts | 304° |
| 2026-04-23 03:20 | 38.91241 | -77.61635 | 20915 ft | 352 kts | 304° |
| 2026-04-23 03:20 | 38.92509 | -77.64304 | 21550 ft | 354 kts | 303° |
| 2026-04-23 03:20 | 38.93542 | -77.67052 | 22139 ft | 360 kts | 294° |
| 2026-04-23 03:21 | 38.94217 | -77.70172 | 22730 ft | 367 kts | 284° |
| 2026-04-23 03:21 | 38.94480 | -77.73460 | 23324 ft | 373 kts | 277° |
| 2026-04-23 03:21 | 38.94604 | -77.76804 | 23902 ft | 376 kts | 277° |
| 2026-04-23 03:21 | 38.94709 | -77.80138 | 24432 ft | 379 kts | 277° |
| 2026-04-23 03:22 | 38.94819 | -77.83528 | 24965 ft | 381 kts | 277° |
| 2026-04-23 03:22 | 38.94935 | -77.86938 | 25469 ft | 384 kts | 277° |
| 2026-04-23 03:22 | 38.95054 | -77.90343 | 25956 ft | 386 kts | 277° |
| 2026-04-23 03:22 | 38.95170 | -77.93777 | 26420 ft | 389 kts | 278° |
| 2026-04-23 03:23 | 38.95290 | -77.97298 | 26883 ft | 392 kts | 278° |
| 2026-04-23 03:23 | 38.95407 | -78.00787 | 27318 ft | 395 kts | 278° |
| 2026-04-23 03:23 | 38.95525 | -78.04330 | 27737 ft | 398 kts | 278° |
| 2026-04-23 03:23 | 38.95641 | -78.07854 | 28155 ft | 401 kts | 278° |
| 2026-04-23 03:24 | 38.95757 | -78.11447 | 28567 ft | 404 kts | 278° |
| 2026-04-23 03:24 | 38.95872 | -78.15054 | 28983 ft | 406 kts | 278° |
| 2026-04-23 03:24 | 38.95985 | -78.18652 | 29398 ft | 408 kts | 278° |
| 2026-04-23 03:24 | 38.96131 | -78.22300 | 29787 ft | 408 kts | 281° |
| 2026-04-23 03:25 | 38.96364 | -78.25948 | 30179 ft | 410 kts | 281° |
| 2026-04-23 03:25 | 38.96603 | -78.29578 | 30529 ft | 413 kts | 281° |
| 2026-04-23 03:25 | 38.96844 | -78.33234 | 30875 ft | 415 kts | 281° |
| 2026-04-23 03:25 | 38.97088 | -78.36988 | 31221 ft | 418 kts | 281° |
| 2026-04-23 03:26 | 38.97332 | -78.40784 | 31609 ft | 419 kts | 281° |
| 2026-04-23 03:26 | 38.97567 | -78.44480 | 32079 ft | 418 kts | 281° |
| 2026-04-23 03:26 | 38.97803 | -78.48212 | 32524 ft | 417 kts | 281° |
| 2026-04-23 03:26 | 38.98036 | -78.51928 | 32942 ft | 416 kts | 281° |
| 2026-04-23 03:27 | 38.98265 | -78.55593 | 33350 ft | 416 kts | 281° |
| 2026-04-23 03:27 | 38.98497 | -78.59309 | 33745 ft | 415 kts | 281° |
| 2026-04-23 03:27 | 38.98723 | -78.62955 | 34130 ft | 414 kts | 281° |
| 2026-04-23 03:27 | 38.98951 | -78.66639 | 34543 ft | 414 kts | 280° |
| 2026-04-23 03:28 | 38.99178 | -78.70326 | 34946 ft | 413 kts | 280° |
| 2026-04-23 03:28 | 38.99403 | -78.74006 | 35343 ft | 413 kts | 280° |
| 2026-04-23 03:28 | 38.99627 | -78.77674 | 35750 ft | 412 kts | 280° |
| 2026-04-23 03:28 | 38.99848 | -78.81325 | 36050 ft | 411 kts | 280° |
| 2026-04-23 03:29 | 39.00295 | -78.88786 | 36044 ft | 410 kts | 280° |
| 2026-04-23 03:29 | 39.00728 | -78.96112 | 36032 ft | 406 kts | 280° |
| 2026-04-23 03:30 | 39.01160 | -79.03426 | 36036 ft | 415 kts | 280° |
| 2026-04-23 03:30 | 39.01595 | -79.10906 | 36047 ft | 424 kts | 280° |
| 2026-04-23 03:31 | 39.02033 | -79.18524 | 36049 ft | 426 kts | 280° |
| 2026-04-23 03:31 | 39.02535 | -79.26144 | 36073 ft | 427 kts | 281° |
| 2026-04-23 03:32 | 39.03040 | -79.33754 | 36082 ft | 427 kts | 281° |
| 2026-04-23 03:32 | 39.03529 | -79.41277 | 36078 ft | 427 kts | 281° |
| 2026-04-23 03:33 | 39.04017 | -79.48882 | 36077 ft | 427 kts | 280° |
| 2026-04-23 03:33 | 39.04497 | -79.56477 | 36080 ft | 426 kts | 280° |
| 2026-04-23 03:34 | 39.04970 | -79.64041 | 36078 ft | 426 kts | 280° |
| 2026-04-23 03:34 | 39.05441 | -79.71657 | 36087 ft | 427 kts | 279° |
| 2026-04-23 03:35 | 39.05897 | -79.79159 | 36090 ft | 421 kts | 280° |
| 2026-04-23 03:35 | 39.06350 | -79.86625 | 36086 ft | 420 kts | 280° |
| 2026-04-23 03:36 | 39.06807 | -79.94218 | 36085 ft | 421 kts | 280° |
| 2026-04-23 03:36 | 39.07250 | -80.01704 | 36075 ft | 421 kts | 279° |
| 2026-04-23 03:37 | 39.07691 | -80.09238 | 36079 ft | 422 kts | 280° |
| 2026-04-23 03:37 | 39.08125 | -80.16765 | 36072 ft | 422 kts | 280° |
| 2026-04-23 03:38 | 39.08552 | -80.24223 | 36074 ft | 422 kts | 279° |
| 2026-04-23 03:38 | 39.08977 | -80.31744 | 36071 ft | 421 kts | 279° |
| 2026-04-23 03:39 | 39.09389 | -80.39244 | 36073 ft | 421 kts | 279° |
| 2026-04-23 03:39 | 39.09792 | -80.46771 | 36076 ft | 421 kts | 279° |
| 2026-04-23 03:40 | 39.10191 | -80.54311 | 36069 ft | 420 kts | 279° |
| 2026-04-23 03:40 | 39.10586 | -80.61860 | 36065 ft | 420 kts | 279° |
| 2026-04-23 03:41 | 39.10970 | -80.69302 | 36063 ft | 421 kts | 279° |
| 2026-04-23 03:41 | 39.11355 | -80.76836 | 36077 ft | 421 kts | 278° |
| 2026-04-23 03:42 | 39.11729 | -80.84335 | 36063 ft | 421 kts | 278° |
| 2026-04-23 03:42 | 39.12100 | -80.91819 | 36070 ft | 421 kts | 278° |
| 2026-04-23 03:43 | 39.12518 | -80.99356 | 36070 ft | 420 kts | 281° |
| 2026-04-23 03:43 | 39.13510 | -81.06710 | 36064 ft | 416 kts | 288° |
| 2026-04-23 03:44 | 39.15193 | -81.13751 | 36068 ft | 411 kts | 295° |
| 2026-04-23 03:44 | 39.17525 | -81.20411 | 36069 ft | 407 kts | 301° |
| 2026-04-23 03:45 | 39.20155 | -81.26855 | 36078 ft | 407 kts | 301° |
| 2026-04-23 03:45 | 39.22784 | -81.33268 | 36077 ft | 407 kts | 302° |
| 2026-04-23 03:46 | 39.25422 | -81.39712 | 36069 ft | 406 kts | 301° |
| 2026-04-23 03:46 | 39.28046 | -81.46139 | 36073 ft | 407 kts | 301° |
| 2026-04-23 03:47 | 39.30668 | -81.52578 | 36075 ft | 407 kts | 302° |
| 2026-04-23 03:47 | 39.33286 | -81.59016 | 36065 ft | 408 kts | 302° |
| 2026-04-23 03:48 | 39.35909 | -81.65488 | 36070 ft | 408 kts | 301° |
| 2026-04-23 03:48 | 39.38529 | -81.71976 | 36059 ft | 407 kts | 301° |
| 2026-04-23 03:49 | 39.41153 | -81.78468 | 36055 ft | 406 kts | 301° |
| 2026-04-23 03:49 | 39.43750 | -81.84907 | 36052 ft | 407 kts | 301° |
| 2026-04-23 03:50 | 39.46346 | -81.91367 | 36042 ft | 406 kts | 301° |
| 2026-04-23 03:50 | 39.48952 | -81.97865 | 36039 ft | 406 kts | 301° |
| 2026-04-23 03:51 | 39.51534 | -82.04324 | 36031 ft | 406 kts | 301° |
| 2026-04-23 03:51 | 39.54125 | -82.10816 | 36036 ft | 407 kts | 301° |
| 2026-04-23 03:52 | 39.56715 | -82.17322 | 36038 ft | 407 kts | 301° |
| 2026-04-23 03:52 | 39.59290 | -82.23807 | 36029 ft | 407 kts | 301° |
| 2026-04-23 03:53 | 39.61881 | -82.30341 | 36033 ft | 406 kts | 301° |
| 2026-04-23 03:53 | 39.64451 | -82.36838 | 36026 ft | 406 kts | 301° |
| 2026-04-23 03:54 | 39.67020 | -82.43346 | 36037 ft | 406 kts | 301° |
| 2026-04-23 03:54 | 39.69584 | -82.49860 | 36034 ft | 406 kts | 301° |
| 2026-04-23 03:55 | 39.72142 | -82.56369 | 36046 ft | 406 kts | 301° |
| 2026-04-23 03:55 | 39.74707 | -82.62910 | 36053 ft | 407 kts | 301° |
| 2026-04-23 03:56 | 39.77264 | -82.69449 | 36052 ft | 406 kts | 301° |
| 2026-04-23 03:56 | 39.79816 | -82.75987 | 36052 ft | 406 kts | 301° |
| 2026-04-23 03:57 | 39.82357 | -82.82504 | 36050 ft | 406 kts | 301° |
| 2026-04-23 03:57 | 39.84900 | -82.89045 | 36049 ft | 405 kts | 300° |
| 2026-04-23 03:58 | 39.87430 | -82.95576 | 36054 ft | 405 kts | 301° |
| 2026-04-23 03:58 | 39.89949 | -83.02090 | 36049 ft | 405 kts | 301° |
| 2026-04-23 03:59 | 39.92489 | -83.08672 | 36046 ft | 406 kts | 301° |
| 2026-04-23 03:59 | 39.94999 | -83.15192 | 36051 ft | 406 kts | 301° |
| 2026-04-23 04:00 | 39.97526 | -83.21760 | 36045 ft | 406 kts | 301° |
| 2026-04-23 04:00 | 40.00058 | -83.28348 | 36048 ft | 406 kts | 300° |
| 2026-04-23 04:01 | 40.02563 | -83.34891 | 36045 ft | 405 kts | 300° |
| 2026-04-23 04:01 | 40.05081 | -83.41492 | 36045 ft | 405 kts | 300° |
| 2026-04-23 04:02 | 40.07582 | -83.48057 | 36045 ft | 405 kts | 300° |
| 2026-04-23 04:02 | 40.10086 | -83.54635 | 36044 ft | 406 kts | 300° |
| 2026-04-23 04:03 | 40.12590 | -83.61221 | 36037 ft | 407 kts | 300° |
| 2026-04-23 04:03 | 40.15107 | -83.67870 | 36032 ft | 408 kts | 300° |
| 2026-04-23 04:04 | 40.17610 | -83.74496 | 36032 ft | 408 kts | 299° |
| 2026-04-23 04:04 | 40.20101 | -83.81108 | 36032 ft | 408 kts | 299° |
| 2026-04-23 04:05 | 40.22586 | -83.87729 | 36031 ft | 407 kts | 299° |
| 2026-04-23 04:05 | 40.25087 | -83.94397 | 36030 ft | 408 kts | 299° |
| 2026-04-23 04:06 | 40.27671 | -84.00963 | 36034 ft | 408 kts | 302° |
| 2026-04-23 04:06 | 40.30714 | -84.07189 | 36030 ft | 406 kts | 308° |
| 2026-04-23 04:07 | 40.34164 | -84.13036 | 36028 ft | 406 kts | 310° |
| 2026-04-23 04:07 | 40.37685 | -84.18789 | 36025 ft | 407 kts | 310° |
| 2026-04-23 04:08 | 40.41223 | -84.24571 | 36023 ft | 406 kts | 310° |
| 2026-04-23 04:08 | 40.44746 | -84.30340 | 36018 ft | 407 kts | 310° |
| 2026-04-23 04:09 | 40.48288 | -84.36149 | 36021 ft | 407 kts | 310° |
| 2026-04-23 04:09 | 40.51805 | -84.41936 | 36021 ft | 406 kts | 310° |
| 2026-04-23 04:10 | 40.55320 | -84.47727 | 36019 ft | 406 kts | 310° |
| 2026-04-23 04:10 | 40.58817 | -84.53498 | 36015 ft | 407 kts | 310° |
| 2026-04-23 04:11 | 40.62336 | -84.59319 | 36010 ft | 407 kts | 310° |
| 2026-04-23 04:11 | 40.65859 | -84.65153 | 36002 ft | 407 kts | 310° |
| 2026-04-23 04:12 | 40.69356 | -84.70959 | 36003 ft | 407 kts | 310° |
| 2026-04-23 04:12 | 40.72860 | -84.76785 | 36003 ft | 407 kts | 310° |
| 2026-04-23 04:13 | 40.76391 | -84.82669 | 35997 ft | 408 kts | 310° |
| 2026-04-23 04:13 | 40.79896 | -84.88520 | 36004 ft | 407 kts | 309° |
| 2026-04-23 04:14 | 40.83404 | -84.94390 | 35997 ft | 408 kts | 309° |
| 2026-04-23 04:14 | 40.86895 | -85.00242 | 36002 ft | 408 kts | 310° |
| 2026-04-23 04:15 | 40.90381 | -85.06099 | 36003 ft | 408 kts | 309° |
| 2026-04-23 04:16 | 40.95637 | -85.14951 | 36007 ft | 408 kts | 309° |
| 2026-04-23 04:16 | 40.99256 | -85.20718 | 36002 ft | 407 kts | 313° |
| 2026-04-23 04:17 | 41.03048 | -85.26221 | 35994 ft | 407 kts | 313° |
| 2026-04-23 04:17 | 41.06891 | -85.31790 | 35755 ft | 408 kts | 314° |
| 2026-04-23 04:17 | 41.08773 | -85.34525 | 35456 ft | 406 kts | 313° |
| 2026-04-23 04:18 | 41.10688 | -85.37309 | 35067 ft | 405 kts | 313° |
| 2026-04-23 04:18 | 41.12569 | -85.40065 | 34414 ft | 404 kts | 312° |
| 2026-04-23 04:18 | 41.14336 | -85.42947 | 33621 ft | 408 kts | 308° |
| 2026-04-23 04:18 | 41.15976 | -85.46053 | 32757 ft | 414 kts | 304° |
| 2026-04-23 04:19 | 41.17457 | -85.49348 | 31834 ft | 420 kts | 301° |
| 2026-04-23 04:19 | 41.18757 | -85.52792 | 30883 ft | 427 kts | 297° |
| 2026-04-23 04:19 | 41.19878 | -85.56432 | 30240 ft | 425 kts | 292° |
| 2026-04-23 04:19 | 41.20819 | -85.60124 | 29676 ft | 421 kts | 290° |
| 2026-04-23 04:20 | 41.21701 | -85.63769 | 29112 ft | 418 kts | 290° |
| 2026-04-23 04:20 | 41.22579 | -85.67436 | 28570 ft | 413 kts | 289° |
| 2026-04-23 04:20 | 41.23447 | -85.71068 | 28042 ft | 409 kts | 289° |
| 2026-04-23 04:20 | 41.24292 | -85.74608 | 27534 ft | 404 kts | 290° |
| 2026-04-23 04:21 | 41.25135 | -85.78143 | 27025 ft | 400 kts | 290° |
| 2026-04-23 04:21 | 41.25973 | -85.81654 | 26515 ft | 396 kts | 290° |
| 2026-04-23 04:21 | 41.26844 | -85.85118 | 25985 ft | 392 kts | 292° |
| 2026-04-23 04:21 | 41.27777 | -85.88486 | 25647 ft | 392 kts | 291° |
| 2026-04-23 04:22 | 41.28490 | -85.92010 | 25589 ft | 398 kts | 283° |
| 2026-04-23 04:22 | 41.28777 | -85.95675 | 25477 ft | 401 kts | 273° |
| 2026-04-23 04:22 | 41.28660 | -85.99342 | 25351 ft | 401 kts | 270° |
| 2026-04-23 04:22 | 41.28613 | -86.03056 | 25207 ft | 399 kts | 274° |
| 2026-04-23 04:23 | 41.28785 | -86.06729 | 25083 ft | 397 kts | 278° |
| 2026-04-23 04:23 | 41.29158 | -86.10365 | 25023 ft | 396 kts | 281° |
| 2026-04-23 04:23 | 41.29575 | -86.13946 | 24987 ft | 396 kts | 281° |
| 2026-04-23 04:23 | 41.30006 | -86.17588 | 24948 ft | 396 kts | 281° |
| 2026-04-23 04:24 | 41.30430 | -86.21176 | 24584 ft | 397 kts | 281° |
| 2026-04-23 04:24 | 41.30851 | -86.24757 | 23984 ft | 395 kts | 281° |
| 2026-04-23 04:24 | 41.31272 | -86.28359 | 23439 ft | 392 kts | 281° |
| 2026-04-23 04:24 | 41.31686 | -86.31923 | 22918 ft | 389 kts | 281° |
| 2026-04-23 04:25 | 41.32097 | -86.35461 | 22415 ft | 386 kts | 281° |
| 2026-04-23 04:25 | 41.32501 | -86.38955 | 21901 ft | 384 kts | 281° |
| 2026-04-23 04:25 | 41.32905 | -86.42459 | 21400 ft | 382 kts | 281° |
| 2026-04-23 04:25 | 41.33301 | -86.45908 | 20883 ft | 380 kts | 281° |
| 2026-04-23 04:26 | 41.33698 | -86.49367 | 20383 ft | 378 kts | 281° |
| 2026-04-23 04:26 | 41.34206 | -86.52785 | 19861 ft | 375 kts | 287° |
| 2026-04-23 04:26 | 41.35013 | -86.56030 | 19369 ft | 372 kts | 294° |
| 2026-04-23 04:26 | 41.36092 | -86.59132 | 18910 ft | 368 kts | 298° |
| 2026-04-23 04:27 | 41.37259 | -86.62177 | 18410 ft | 367 kts | 299° |
| 2026-04-23 04:27 | 41.38417 | -86.65163 | 17920 ft | 366 kts | 299° |
| 2026-04-23 04:27 | 41.39772 | -86.68010 | 17408 ft | 363 kts | 312° |
| 2026-04-23 04:28 | 41.43780 | -86.71825 | 16516 ft | 353 kts | 332° |
| 2026-04-23 04:28 | 41.45694 | -86.73822 | 16251 ft | 350 kts | 310° |
| 2026-04-23 04:28 | 41.46758 | -86.76701 | 16024 ft | 354 kts | 288° |
| 2026-04-23 04:28 | 41.47388 | -86.79871 | 15813 ft | 352 kts | 287° |
| 2026-04-23 04:29 | 41.48051 | -86.82982 | 15590 ft | 351 kts | 289° |
| 2026-04-23 04:29 | 41.48761 | -86.86092 | 15331 ft | 350 kts | 289° |
| 2026-04-23 04:29 | 41.49498 | -86.89183 | 15081 ft | 348 kts | 290° |
| 2026-04-23 04:29 | 41.50240 | -86.92229 | 14809 ft | 347 kts | 290° |
| 2026-04-23 04:30 | 41.50987 | -86.95255 | 14570 ft | 346 kts | 290° |
| 2026-04-23 04:30 | 41.51745 | -86.98312 | 14334 ft | 345 kts | 291° |
| 2026-04-23 04:30 | 41.52499 | -87.01344 | 14091 ft | 344 kts | 291° |
| 2026-04-23 04:30 | 41.53243 | -87.04339 | 13821 ft | 342 kts | 291° |
| 2026-04-23 04:31 | 41.53991 | -87.07347 | 13574 ft | 341 kts | 291° |
| 2026-04-23 04:31 | 41.54738 | -87.10349 | 13314 ft | 339 kts | 291° |
| 2026-04-23 04:31 | 41.55476 | -87.13325 | 13083 ft | 339 kts | 291° |
| 2026-04-23 04:31 | 41.56209 | -87.16283 | 12855 ft | 338 kts | 290° |
| 2026-04-23 04:32 | 41.56950 | -87.19266 | 12652 ft | 337 kts | 291° |
| 2026-04-23 04:32 | 41.57711 | -87.22208 | 12430 ft | 336 kts | 294° |
| 2026-04-23 04:32 | 41.58704 | -87.25032 | 12181 ft | 334 kts | 301° |
| 2026-04-23 04:32 | 41.59513 | -87.26771 | 12078 ft | 332 kts | 306° |
| 2026-04-23 04:33 | 41.61319 | -87.30084 | 11746 ft | 331 kts | 309° |
| 2026-04-23 04:33 | 41.62691 | -87.32526 | 11499 ft | 329 kts | 309° |
| 2026-04-23 04:33 | 41.64072 | -87.34982 | 11246 ft | 328 kts | 309° |
| 2026-04-23 04:33 | 41.65422 | -87.37392 | 11006 ft | 327 kts | 309° |
| 2026-04-23 04:34 | 41.66785 | -87.39832 | 10765 ft | 326 kts | 308° |
| 2026-04-23 04:34 | 41.68124 | -87.42236 | 10474 ft | 320 kts | 308° |
| 2026-04-23 04:34 | 41.69434 | -87.44594 | 10135 ft | 313 kts | 308° |
| 2026-04-23 04:34 | 41.70719 | -87.46910 | 9946 ft | 303 kts | 308° |
| 2026-04-23 04:35 | 41.71940 | -87.49113 | 9859 ft | 290 kts | 308° |
| 2026-04-23 04:35 | 41.73142 | -87.51283 | 9779 ft | 288 kts | 308° |
| 2026-04-23 04:35 | 41.74326 | -87.53418 | 9594 ft | 288 kts | 308° |
| 2026-04-23 04:35 | 41.75527 | -87.55588 | 9288 ft | 287 kts | 308° |
| 2026-04-23 04:36 | 41.76698 | -87.57705 | 8950 ft | 286 kts | 308° |
| 2026-04-23 04:36 | 41.77879 | -87.59840 | 8609 ft | 284 kts | 308° |
| 2026-04-23 04:36 | 41.79061 | -87.61983 | 8234 ft | 282 kts | 307° |
| 2026-04-23 04:36 | 41.80211 | -87.64065 | 7876 ft | 280 kts | 307° |
| 2026-04-23 04:37 | 41.81366 | -87.66158 | 7518 ft | 279 kts | 306° |
| 2026-04-23 04:37 | 41.82484 | -87.68263 | 7157 ft | 277 kts | 299° |
| 2026-04-23 04:37 | 41.83084 | -87.70700 | 6975 ft | 275 kts | 275° |
| 2026-04-23 04:37 | 41.83049 | -87.73265 | 6977 ft | 276 kts | 265° |
| 2026-04-23 04:38 | 41.82893 | -87.75824 | 6972 ft | 277 kts | 264° |
| 2026-04-23 04:38 | 41.82730 | -87.78403 | 6971 ft | 277 kts | 265° |
| 2026-04-23 04:38 | 41.82572 | -87.80997 | 6970 ft | 277 kts | 265° |
| 2026-04-23 04:38 | 41.82421 | -87.83561 | 6969 ft | 277 kts | 265° |
| 2026-04-23 04:39 | 41.82273 | -87.86153 | 6969 ft | 277 kts | 265° |
| 2026-04-23 04:39 | 41.82128 | -87.88730 | 6967 ft | 277 kts | 265° |
| 2026-04-23 04:39 | 41.81984 | -87.91290 | 6966 ft | 277 kts | 265° |
| 2026-04-23 04:39 | 41.81841 | -87.93851 | 6930 ft | 274 kts | 265° |
| 2026-04-23 04:40 | 41.81700 | -87.96379 | 6586 ft | 273 kts | 265° |
| 2026-04-23 04:40 | 41.81558 | -87.98923 | 6181 ft | 273 kts | 265° |
| 2026-04-23 04:40 | 41.81417 | -88.01442 | 5838 ft | 271 kts | 265° |
| 2026-04-23 04:40 | 41.81275 | -88.03928 | 5506 ft | 268 kts | 265° |
| 2026-04-23 04:41 | 41.81134 | -88.06399 | 5176 ft | 266 kts | 265° |
| 2026-04-23 04:41 | 41.80992 | -88.08884 | 4846 ft | 263 kts | 264° |
| 2026-04-23 04:41 | 41.80854 | -88.11288 | 4516 ft | 261 kts | 264° |
| 2026-04-23 04:41 | 41.80716 | -88.13691 | 4192 ft | 258 kts | 264° |
| 2026-04-23 04:42 | 41.80579 | -88.16072 | 3977 ft | 254 kts | 264° |
| 2026-04-23 04:42 | 41.80442 | -88.18445 | 3966 ft | 256 kts | 264° |
| 2026-04-23 04:42 | 41.80306 | -88.20809 | 3964 ft | 256 kts | 265° |
| 2026-04-23 04:42 | 41.80282 | -88.23188 | 3958 ft | 257 kts | 277° |
| 2026-04-23 04:43 | 41.80972 | -88.25416 | 3959 ft | 261 kts | 306° |
| 2026-04-23 04:43 | 41.82375 | -88.26920 | 3963 ft | 266 kts | 334° |
| 2026-04-23 04:43 | 41.84196 | -88.27476 | 3972 ft | 270 kts | 353° |
| 2026-04-23 04:43 | 41.86068 | -88.27635 | 3970 ft | 270 kts | 356° |
| 2026-04-23 04:44 | 41.87960 | -88.27731 | 3967 ft | 270 kts | 356° |
| 2026-04-23 04:44 | 41.89844 | -88.27819 | 3966 ft | 270 kts | 356° |
| 2026-04-23 04:44 | 41.91729 | -88.27910 | 3964 ft | 270 kts | 356° |
| 2026-04-23 04:44 | 41.93616 | -88.27940 | 3956 ft | 271 kts | 5° |
| 2026-04-23 04:45 | 41.95348 | -88.27069 | 3774 ft | 273 kts | 39° |
| 2026-04-23 04:45 | 41.96417 | -88.25069 | 3713 ft | 257 kts | 69° |
| 2026-04-23 04:45 | 41.96963 | -88.22867 | 3702 ft | 243 kts | 74° |
| 2026-04-23 04:45 | 41.97469 | -88.20741 | 3691 ft | 229 kts | 72° |
| 2026-04-23 04:46 | 41.97998 | -88.18793 | 3679 ft | 218 kts | 70° |
| 2026-04-23 04:46 | 41.98494 | -88.16915 | 3650 ft | 207 kts | 78° |
| 2026-04-23 04:46 | 41.98707 | -88.15062 | 3609 ft | 196 kts | 87° |
| 2026-04-23 04:46 | 41.98783 | -88.13301 | 3580 ft | 183 kts | 90° |
| 2026-04-23 04:47 | 41.98811 | -88.11652 | 3336 ft | 172 kts | 92° |
| 2026-04-23 04:47 | 41.98815 | -88.10066 | 3103 ft | 163 kts | 93° |
| 2026-04-23 04:47 | 41.98812 | -88.08588 | 2917 ft | 157 kts | 93° |
| 2026-04-23 04:47 | 41.98811 | -88.07167 | 2717 ft | 145 kts | 93° |
| 2026-04-23 04:48 | 41.98810 | -88.05875 | 2520 ft | 137 kts | 93° |
| 2026-04-23 04:48 | 41.98809 | -88.04602 | 2348 ft | 135 kts | 94° |
| 2026-04-23 04:48 | 41.98809 | -88.03355 | 2174 ft | 133 kts | 93° |
| 2026-04-23 04:48 | 41.98810 | -88.02122 | 1998 ft | 131 kts | 93° |
| 2026-04-23 04:49 | 41.98811 | -88.00910 | 1821 ft | 130 kts | 93° |
| 2026-04-23 04:49 | 41.98812 | -87.99703 | 1643 ft | 129 kts | 92° |
| 2026-04-23 04:49 | 41.98814 | -87.98487 | 1466 ft | 129 kts | 92° |
| 2026-04-23 04:49 | 41.98815 | -87.97281 | 1293 ft | 129 kts | 91° |
| 2026-04-23 04:50 | 41.98818 | -87.96091 | 1120 ft | 128 kts | 91° |
| 2026-04-23 04:50 | 41.98823 | -87.94894 | 969 ft | 127 kts | 90° |
| 2026-04-23 04:50 | 41.98826 | -87.93726 | 835 ft | 126 kts | 90° |
| 2026-04-23 04:50 | 41.98829 | -87.92548 | 673 ft | 123 kts | 90° |
| 2026-04-23 04:51 | 41.98830 | -87.91579 | 663 ft | 80 kts | 90° |
| 2026-04-23 04:51 | 41.98784 | -87.91072 | 656 ft | 30 kts | 116° |
| 2026-04-23 04:51 | 41.98734 | -87.90984 | 657 ft | 2 kts | 155° |
| 2026-04-23 04:51 | 41.98716 | -87.90984 | 657 ft | 2 kts | 191° |
| 2026-04-23 04:52 | 41.98687 | -87.90977 | 658 ft | 4 kts | 135° |
| 2026-04-23 04:52 | 41.98679 | -87.90909 | 658 ft | 10 kts | 89° |
| 2026-04-23 04:52 | 41.98679 | -87.90792 | 657 ft | 15 kts | 90° |
| 2026-04-23 04:52 | 41.98680 | -87.90614 | 655 ft | 21 kts | 90° |
| 2026-04-23 04:53 | 41.98679 | -87.90408 | 655 ft | 22 kts | 91° |
| 2026-04-23 04:53 | 41.98681 | -87.90202 | 655 ft | 22 kts | 92° |
| 2026-04-23 04:53 | 41.98680 | -87.89999 | 655 ft | 21 kts | 91° |
| 2026-04-23 04:53 | 41.98677 | -87.89799 | 655 ft | 21 kts | 91° |
| 2026-04-23 04:54 | 41.98676 | -87.89602 | 655 ft | 21 kts | 91° |
| 2026-04-23 04:54 | 41.98676 | -87.89397 | 653 ft | 22 kts | 90° |
| 2026-04-23 04:54 | 41.98678 | -87.89185 | 652 ft | 22 kts | 89° |
| 2026-04-23 04:54 | 41.98628 | -87.89049 | 652 ft | 16 kts | 167° |
| 2026-04-23 04:55 | 41.98513 | -87.89044 | 652 ft | 17 kts | 180° |
| 2026-04-23 04:55 | 41.98389 | -87.89045 | 652 ft | 18 kts | 180° |
| 2026-04-23 04:55 | 41.98262 | -87.89038 | 652 ft | 18 kts | 178° |
| 2026-04-23 04:55 | 41.98134 | -87.89061 | 652 ft | 18 kts | 213° |
| 2026-04-23 04:56 | 41.98047 | -87.89193 | 652 ft | 19 kts | 232° |
| 2026-04-23 04:56 | 41.97966 | -87.89329 | 655 ft | 18 kts | 230° |
| 2026-04-23 04:56 | 41.97870 | -87.89429 | 655 ft | 17 kts | 195° |
| 2026-04-23 04:56 | 41.97741 | -87.89431 | 654 ft | 19 kts | 178° |
| 2026-04-23 04:57 | 41.97608 | -87.89430 | 654 ft | 19 kts | 180° |
| 2026-04-23 04:57 | 41.97492 | -87.89456 | 654 ft | 14 kts | 227° |
| 2026-04-23 04:57 | 41.97503 | -87.89565 | 655 ft | 12 kts | 299° |
| 2026-04-23 04:57 | 41.97535 | -87.89673 | 655 ft | 12 kts | 288° |
| 2026-04-23 04:58 | 41.97559 | -87.89770 | 657 ft | 8 kts | 280° |
| 2026-04-23 04:58 | 41.97531 | -87.89827 | 658 ft | 4 kts | 221° |
| 2026-04-23 04:58 | 41.97521 | -87.89839 | 658 ft | 0 kts | 223° |